Frem Nordica — OVIL2 — position and weather

sailwx.info

Track history (hours):
 
Tides and Currents Weather Stations Pressure Air Temp Water Temp Dewpoint Dewpoint Depression Visibility Wind Speed Wind Dir Waves Ship Positions

Frem Nordica

Last reported at 2014-Sep-30 08:34 UTC. Time now 2014-Sep-30 10:19 UTC.
Position N 55°12' E 013°25'.

Length 79 m; draft 3.3 m.

Type: Cargo ship. MMSI: 220439000.

Date/timePositionNaut miles runAvg speedWind from/ knotsBaromVisibWave heightAir tempDewpointWater temp
2014-Sep-30 08:34N 55°12' E 013°25'8 8.1
2014-Sep-30 07:31N 55°13' E 013°10'8 7.9
2014-Sep-30 06:33N 55°14' E 012°57'7 7.2
2014-Sep-30 05:34N 55°16' E 012°45'7 6.6
2014-Sep-30 04:33N 55°22' E 012°39'8 8.2
2014-Sep-30 03:33N 55°30' E 012°42'9 8.5
2014-Sep-30 02:33N 55°38' E 012°41'9 8.5
2014-Sep-30 01:33N 55°47' E 012°41'8 8.5
2014-Sep-30 00:34N 55°55' E 012°38'8 8.4
2014-Sep-29 23:34N 56°03' E 012°38'9 9.0
2014-Sep-29 22:33N 56°09' E 012°25'9 8.6
2014-Sep-29 21:33N 56°11' E 012°10'  
2014-Sep-20 14:31N 56°25' E 010°56'0 0.0
2014-Sep-20 13:31N 56°25' E 010°56'0 0.0
2014-Sep-20 12:25N 56°25' E 010°56'0 0.0
2014-Sep-20 11:13N 56°25' E 010°56'0 0.0
2014-Sep-20 10:31N 56°25' E 010°56'  
Track history (hours):
 
Tides and Currents Weather Stations Pressure Air Temp Water Temp Dewpoint Dewpoint Depression Visibility Wind Speed Wind Dir Waves Ship Positions

Frem Nordica

Last reported at 2014-Sep-30 08:34 UTC. Time now 2014-Sep-30 10:19 UTC.
Position N 55°12' E 013°25'.

Length 79 m; draft 3.3 m.

Type: Cargo ship. MMSI: 220439000.

Date/timePositionNaut miles runAvg speedWind from/ knotsBaromVisibWave heightAir tempDewpointWater temp
2014-Sep-30 08:34N 55°12' E 013°25'8 8.1
2014-Sep-30 07:31N 55°13' E 013°10'8 7.9
2014-Sep-30 06:33N 55°14' E 012°57'7 7.2
2014-Sep-30 05:34N 55°16' E 012°45'7 6.6
2014-Sep-30 04:33N 55°22' E 012°39'8 8.2
2014-Sep-30 03:33N 55°30' E 012°42'9 8.5
2014-Sep-30 02:33N 55°38' E 012°41'9 8.5
2014-Sep-30 01:33N 55°47' E 012°41'8 8.5
2014-Sep-30 00:34N 55°55' E 012°38'8 8.4
2014-Sep-29 23:34N 56°03' E 012°38'9 9.0
2014-Sep-29 22:33N 56°09' E 012°25'9 8.6
2014-Sep-29 21:33N 56°11' E 012°10'  
2014-Sep-20 14:31N 56°25' E 010°56'0 0.0
2014-Sep-20 13:31N 56°25' E 010°56'0 0.0
2014-Sep-20 12:25N 56°25' E 010°56'0 0.0
2014-Sep-20 11:13N 56°25' E 010°56'0 0.0
2014-Sep-20 10:31N 56°25' E 010°56'  

Dump ship's entire track history